createdAt,value
2022-10-11T00:01:16.444Z,100760.81
2022-10-11T00:04:04.750Z,100758.34
2022-10-11T00:06:47.294Z,100751.78
2022-10-11T00:09:27.561Z,100747.03
2022-10-11T00:12:08.473Z,100749.91
2022-10-11T00:14:49.854Z,100748.47
2022-10-11T00:17:32.814Z,100752.81
2022-10-11T00:20:14.564Z,100748.47
2022-10-11T00:22:55.886Z,100739.44
2022-10-11T00:25:39.316Z,100739.66
2022-10-11T00:28:18.982Z,100732.03
2022-10-11T00:30:59.091Z,100738.81
2022-10-11T00:33:47.158Z,100737.81
2022-10-11T00:36:35.007Z,100733.56
2022-10-11T00:39:22.968Z,100731.22
2022-10-11T00:42:15.965Z,100730.59
2022-10-11T00:45:31.333Z,100731.22
2022-10-11T00:48:31.823Z,100731.31
2022-10-11T00:51:41.460Z,100729.78
2022-10-11T00:54:33.862Z,100726.47
2022-10-11T00:57:25.094Z,100735.34
2022-10-11T01:00:15.098Z,100730.19
2022-10-11T01:03:04.820Z,100728.56
2022-10-11T01:05:53.086Z,100725.97
2022-10-11T01:08:41.281Z,100728.56
2022-10-11T01:11:30.777Z,100726.81
2022-10-11T01:14:27.930Z,100729.47
2022-10-11T01:17:40.724Z,100724.97
2022-10-11T01:20:56.697Z,100726.91
2022-10-11T01:24:11.109Z,100723.59
2022-10-11T01:27:25.975Z,100721.75
2022-10-11T01:30:30.193Z,100723.81
2022-10-11T01:33:21.105Z,100718.38
2022-10-11T01:36:31.577Z,100715.19
2022-10-11T01:39:35.951Z,100719.09
2022-10-11T01:42:25.310Z,100716.72
2022-10-11T01:45:16.813Z,100721.97
2022-10-11T01:48:11.333Z,100714.25
2022-10-11T01:51:02.631Z,100719.94
2022-10-11T01:53:59.151Z,100716.44
2022-10-11T01:57:05.934Z,100720.66
2022-10-11T02:00:16.623Z,100717.16
2022-10-11T02:03:22.950Z,100723.13
2022-10-11T02:06:11.002Z,100723.22
2022-10-11T02:09:04.361Z,100719.94
2022-10-11T02:11:48.667Z,100712.63
2022-10-11T02:14:35.764Z,100719.63
2022-10-11T02:17:25.593Z,100728.25
2022-10-11T02:20:13.440Z,100721.88
2022-10-11T02:23:03.657Z,100718.91
2022-10-11T02:25:48.008Z,100725.47
2022-10-11T02:28:34.736Z,100729.16
2022-10-11T02:31:16.453Z,100726.69
2022-10-11T02:34:23.469Z,100729.28
2022-10-11T02:37:10.021Z,100728.53
2022-10-11T02:40:00.677Z,100729.16
2022-10-11T02:42:48.684Z,100727.72
2022-10-11T02:45:36.347Z,100730.50
2022-10-11T02:48:18.029Z,100723.59
2022-10-11T02:50:59.562Z,100733.13
2022-10-11T02:53:41.514Z,100729.31
2022-10-11T02:56:21.431Z,100729.53
2022-10-11T02:59:01.501Z,100731.16
2022-10-11T03:01:41.095Z,100731.00
2022-10-11T03:04:20.863Z,100736.81
2022-10-11T03:07:00.704Z,100739.00
2022-10-11T03:09:41.808Z,100726.16
2022-10-11T03:12:22.893Z,100735.41
2022-10-11T03:15:03.963Z,100727.50
2022-10-11T03:17:46.010Z,100722.91
2022-10-11T03:20:27.437Z,100723.69
2022-10-11T03:23:07.720Z,100726.47
2022-10-11T03:25:47.543Z,100720.09
2022-10-11T03:28:28.361Z,100712.50
2022-10-11T03:31:10.161Z,100719.47
2022-10-11T03:33:50.170Z,100717.63
2022-10-11T03:36:31.316Z,100716.25
2022-10-11T03:39:12.553Z,100713.81
2022-10-11T03:41:54.043Z,100713.50
2022-10-11T03:44:35.545Z,100709.06
2022-10-11T03:47:19.932Z,100707.31
2022-10-11T03:50:00.175Z,100702.63
2022-10-11T03:52:40.895Z,100705.06
2022-10-11T03:55:22.492Z,100696.34
2022-10-11T03:58:03.733Z,100711.56
2022-10-11T04:00:43.971Z,100704.47
2022-10-11T04:03:23.750Z,100697.47
2022-10-11T04:06:05.896Z,100698.41
2022-10-11T04:08:47.959Z,100707.97
2022-10-11T04:11:28.164Z,100707.88
2022-10-11T04:14:09.185Z,100694.00
2022-10-11T04:16:49.282Z,100701.28
2022-10-11T04:19:29.084Z,100705.00
2022-10-11T04:22:09.263Z,100702.03
2022-10-11T04:24:48.794Z,100709.13
2022-10-11T04:27:29.607Z,100699.34
2022-10-11T04:30:12.772Z,100705.03
2022-10-11T04:32:53.257Z,100708.41
2022-10-11T04:35:33.807Z,100705.03
2022-10-11T04:38:14.313Z,100704.91
2022-10-11T04:40:53.807Z,100700.16
2022-10-11T04:43:36.973Z,100704.28
2022-10-11T04:46:18.202Z,100708.31
2022-10-11T04:48:59.815Z,100702.03
2022-10-11T04:51:40.513Z,100700.78
2022-10-11T04:54:22.035Z,100706.53
2022-10-11T04:57:02.478Z,100698.50
2022-10-11T04:59:47.874Z,100702.41
2022-10-11T05:02:29.841Z,100697.16
2022-10-11T05:05:11.370Z,100705.97
2022-10-11T05:07:50.999Z,100698.66
2022-10-11T05:10:31.931Z,100702.31
2022-10-11T05:13:14.547Z,100705.41
2022-10-11T05:15:57.183Z,100707.22
2022-10-11T05:18:38.415Z,100701.22
2022-10-11T05:21:22.435Z,100705.81
2022-10-11T05:24:02.766Z,100708.00
2022-10-11T05:26:42.472Z,100700.53
2022-10-11T05:29:22.209Z,100702.47
2022-10-11T05:32:02.038Z,100699.41
2022-10-11T05:34:43.280Z,100704.94
2022-10-11T05:37:25.193Z,100695.72
2022-10-11T05:40:20.833Z,100694.34
2022-10-11T05:43:01.153Z,100697.16
2022-10-11T05:45:43.864Z,100686.19
2022-10-11T05:48:26.840Z,100697.69
2022-10-11T05:51:10.722Z,100695.34
2022-10-11T05:53:53.206Z,100699.09
2022-10-11T05:56:37.812Z,100694.91
2022-10-11T05:59:19.576Z,100691.63
2022-10-11T06:02:01.960Z,100695.16
2022-10-11T06:04:43.971Z,100695.34
2022-10-11T06:07:25.161Z,100691.59
2022-10-11T06:10:06.730Z,100687.59
2022-10-11T06:12:53.179Z,100680.34
2022-10-11T06:15:51.223Z,100679.88
2022-10-11T06:18:58.792Z,100676.69
2022-10-11T06:21:56.374Z,100680.28
2022-10-11T06:25:01.277Z,100667.59
2022-10-11T06:28:08.873Z,100669.31
2022-10-11T06:31:05.259Z,100667.53
2022-10-11T06:34:09.273Z,100671.25
2022-10-11T06:37:03.056Z,100672.28
2022-10-11T06:40:00.723Z,100670.97
2022-10-11T06:43:09.658Z,100665.31
2022-10-11T06:46:08.496Z,100666.31
2022-10-11T06:49:08.460Z,100667.34
2022-10-11T06:52:18.239Z,100665.19
2022-10-11T06:55:25.396Z,100659.56
2022-10-11T06:58:34.654Z,100663.25
2022-10-11T07:01:32.730Z,100666.03
2022-10-11T07:04:28.206Z,100666.22
2022-10-11T07:07:21.879Z,100662.31
2022-10-11T07:10:16.365Z,100668.59
2022-10-11T07:13:16.276Z,100665.50
2022-10-11T07:16:29.089Z,100665.38
2022-10-11T07:19:35.037Z,100664.03
2022-10-11T07:22:36.965Z,100657.28
2022-10-11T07:25:46.490Z,100664.78
2022-10-11T07:28:58.817Z,100656.63
2022-10-11T07:32:04.565Z,100661.16
2022-10-11T07:35:02.057Z,100654.47
2022-10-11T07:38:08.466Z,100654.78
2022-10-11T07:41:06.129Z,100647.97
2022-10-11T07:43:59.538Z,100650.19
2022-10-11T07:46:54.116Z,100649.63
2022-10-11T07:49:49.094Z,100655.94
2022-10-11T07:52:46.405Z,100646.25
2022-10-11T07:55:45.361Z,100649.41
2022-10-11T07:58:42.590Z,100650.22
2022-10-11T08:01:38.897Z,100651.72
2022-10-11T08:04:36.352Z,100645.31
2022-10-11T08:07:36.755Z,100640.13
2022-10-11T08:10:30.041Z,100638.22
2022-10-11T08:13:26.193Z,100641.22
2022-10-11T08:16:20.590Z,100636.31
2022-10-11T08:19:19.226Z,100638.50
2022-10-11T08:22:29.176Z,100638.22
2022-10-11T08:25:44.322Z,100631.97
2022-10-11T08:28:41.910Z,100625.66
2022-10-11T08:31:44.908Z,100629.22
2022-10-11T08:34:45.284Z,100623.75
2022-10-11T08:37:42.884Z,100623.50
2022-10-11T08:40:56.583Z,100614.75
2022-10-11T08:44:02.777Z,100613.53
2022-10-11T08:47:04.401Z,100601.63
2022-10-11T08:50:01.157Z,100610.63
2022-10-11T08:52:59.458Z,100603.84
2022-10-11T08:55:55.622Z,100596.44
2022-10-11T08:59:00.819Z,100588.41
2022-10-11T09:02:02.119Z,100593.97
2022-10-11T09:04:53.791Z,100584.97
2022-10-11T09:07:54.895Z,100581.13
2022-10-11T09:10:59.216Z,100584.50
2022-10-11T09:14:21.503Z,100579.22
2022-10-11T09:17:30.975Z,100579.22
2022-10-11T09:20:30.323Z,100570.44
2022-10-11T09:23:44.444Z,100568.78
2022-10-11T09:26:42.182Z,100562.88
2022-10-11T09:30:05.611Z,100556.56
2022-10-11T09:33:19.930Z,100556.16
2022-10-11T09:36:17.560Z,100552.16
2022-10-11T09:39:35.485Z,100540.22
2022-10-11T09:42:23.858Z,100542.69
2022-10-11T09:45:18.978Z,100532.03
2022-10-11T09:48:08.001Z,100533.13
2022-10-11T09:51:05.249Z,100532.28
2022-10-11T09:54:01.931Z,100534.63
2022-10-11T09:56:50.021Z,100530.25
2022-10-11T09:59:37.901Z,100522.97
2022-10-11T10:02:28.639Z,100530.31
2022-10-11T10:05:20.509Z,100514.97
2022-10-11T10:08:10.788Z,100525.47
2022-10-11T10:11:00.615Z,100524.84
2022-10-11T10:13:55.975Z,100521.38
2022-10-11T10:16:44.090Z,100511.50
2022-10-11T10:19:58.840Z,100518.03
2022-10-11T10:22:47.107Z,100509.78
2022-10-11T10:25:43.271Z,100503.78
2022-10-11T10:28:31.405Z,100498.97
2022-10-11T10:31:49.474Z,100494.28
2022-10-11T10:35:02.370Z,100493.00
2022-10-11T10:38:09.982Z,100489.94
2022-10-11T10:41:03.295Z,100485.13
2022-10-11T10:43:59.466Z,100478.66
2022-10-11T10:47:08.250Z,100480.78
2022-10-11T10:50:23.447Z,100475.28
2022-10-11T10:53:37.822Z,100463.63
2022-10-11T10:56:39.136Z,100473.91
2022-10-11T11:00:00.617Z,100470.44
2022-10-11T11:02:59.900Z,100464.31
2022-10-11T11:06:17.339Z,100465.94
2022-10-11T11:09:23.959Z,100457.69
2022-10-11T11:12:36.380Z,100454.78
2022-10-11T11:15:35.575Z,100453.00
2022-10-11T11:18:42.238Z,100449.72
2022-10-11T11:21:33.753Z,100447.81
2022-10-11T11:24:22.773Z,100445.03
2022-10-11T11:27:13.420Z,100441.44
2022-10-11T11:30:16.456Z,100434.78
2022-10-11T11:33:23.239Z,100434.94
2022-10-11T11:36:23.778Z,100428.94
2022-10-11T11:39:18.196Z,100421.78
2022-10-11T11:42:13.869Z,100419.53
2022-10-11T11:45:28.150Z,100414.84
2022-10-11T11:48:20.619Z,100413.72
2022-10-11T11:51:17.711Z,100410.66
2022-10-11T11:54:28.484Z,100408.25
2022-10-11T11:57:35.856Z,100406.63
2022-10-11T12:00:29.786Z,100404.31
2022-10-11T12:03:25.544Z,100397.81
2022-10-11T12:06:28.528Z,100400.44
2022-10-11T12:09:16.791Z,100398.00
2022-10-11T12:12:29.059Z,100392.63
2022-10-11T12:15:26.034Z,100388.75
2022-10-11T12:18:19.213Z,100392.66
2022-10-11T12:21:32.790Z,100385.19
2022-10-11T12:24:20.594Z,100380.97
2022-10-11T12:27:39.587Z,100381.72
2022-10-11T12:30:48.371Z,100379.50
2022-10-11T12:33:36.103Z,100375.78
2022-10-11T12:36:35.780Z,100376.56
2022-10-11T12:39:23.769Z,100371.44
2022-10-11T12:42:27.874Z,100370.16
2022-10-11T12:45:18.634Z,100365.31
2022-10-11T12:48:51.419Z,100360.44
2022-10-11T12:52:13.430Z,100361.88
2022-10-11T12:55:06.506Z,100359.38
2022-10-11T12:58:16.045Z,100358.44
2022-10-11T13:01:03.925Z,100354.06
2022-10-11T13:03:58.177Z,100354.22
2022-10-11T13:07:12.719Z,100353.88
2022-10-11T13:10:00.635Z,100354.09
2022-10-11T13:12:49.043Z,100339.34
2022-10-11T13:15:37.174Z,100338.41
2022-10-11T13:18:26.447Z,100338.78
2022-10-11T13:21:23.143Z,100338.09
2022-10-11T13:24:17.827Z,100329.81
2022-10-11T13:27:06.789Z,100330.47
2022-10-11T13:30:00.062Z,100337.09
2022-10-11T13:32:48.000Z,100329.78
2022-10-11T13:35:38.839Z,100329.84
2022-10-11T13:38:35.282Z,100332.06
2022-10-11T13:41:24.323Z,100330.94
2022-10-11T13:44:12.340Z,100329.00
2022-10-11T13:47:00.458Z,100337.31
2022-10-11T13:50:00.507Z,100337.59
2022-10-11T13:53:01.439Z,100338.13
2022-10-11T13:55:59.355Z,100335.91
2022-10-11T13:58:55.592Z,100330.47
2022-10-11T14:01:49.318Z,100339.94
2022-10-11T14:04:43.422Z,100333.59
2022-10-11T14:07:38.727Z,100327.84
2022-10-11T14:10:27.087Z,100332.25
2022-10-11T14:13:34.159Z,100329.53
2022-10-11T14:16:22.747Z,100329.47
2022-10-11T14:19:23.282Z,100326.03
2022-10-11T14:22:18.447Z,100334.22
2022-10-11T14:25:06.332Z,100331.59
2022-10-11T14:27:57.609Z,100338.16
2022-10-11T14:30:45.703Z,100335.47
2022-10-11T14:33:33.798Z,100331.44
2022-10-11T14:36:23.067Z,100335.06
2022-10-11T14:39:19.807Z,100341.94
2022-10-11T14:42:07.949Z,100338.56
2022-10-11T14:44:56.240Z,100339.13
2022-10-11T14:47:44.309Z,100347.06
2022-10-11T14:51:03.181Z,100344.09
2022-10-11T14:53:51.695Z,100344.59
2022-10-11T14:56:39.401Z,100350.31
2022-10-11T14:59:31.884Z,100353.78
2022-10-11T15:02:19.650Z,100345.66
2022-10-11T15:05:08.089Z,100352.75
2022-10-11T15:07:55.651Z,100358.25
2022-10-11T15:10:43.215Z,100361.56
2022-10-11T15:13:31.075Z,100356.69
2022-10-11T15:16:21.249Z,100355.59
2022-10-11T15:19:21.578Z,100356.47
2022-10-11T15:22:09.128Z,100360.72
2022-10-11T15:24:57.511Z,100361.13
2022-10-11T15:27:45.589Z,100359.94
2022-10-11T15:30:41.129Z,100357.34
2022-10-11T15:33:29.642Z,100359.13
2022-10-11T15:36:22.532Z,100357.91
2022-10-11T15:39:23.186Z,100366.22
2022-10-11T15:42:11.260Z,100361.47
2022-10-11T15:44:59.014Z,100364.22
2022-10-11T15:47:47.323Z,100362.00
2022-10-11T15:50:37.545Z,100363.25
2022-10-11T15:53:30.184Z,100362.56
2022-10-11T15:56:19.400Z,100361.59
2022-10-11T15:59:07.203Z,100362.53
2022-10-11T16:01:55.025Z,100364.13
2022-10-11T16:04:44.492Z,100361.53
2022-10-11T16:07:32.084Z,100368.75
2022-10-11T16:10:20.886Z,100361.25
2022-10-11T16:13:09.645Z,100360.44
2022-10-11T16:15:57.808Z,100362.72
2022-10-11T16:18:45.488Z,100368.22
2022-10-11T16:21:33.475Z,100370.25
2022-10-11T16:24:21.568Z,100367.69
2022-10-11T16:27:09.161Z,100367.69
2022-10-11T16:29:57.160Z,100371.38
2022-10-11T16:32:45.447Z,100367.16
2022-10-11T16:35:33.123Z,100368.25
2022-10-11T16:38:21.147Z,100359.66
2022-10-11T16:41:08.802Z,100365.97
2022-10-11T16:43:57.168Z,100356.53
2022-10-11T16:46:48.690Z,100360.66
2022-10-11T16:49:37.892Z,100361.59
2022-10-11T16:52:26.723Z,100356.69
2022-10-11T16:55:14.644Z,100356.84
2022-10-11T16:58:02.586Z,100357.53
2022-10-11T17:00:50.714Z,100354.66
2022-10-11T17:03:39.037Z,100355.75
2022-10-11T17:06:28.066Z,100344.03
2022-10-11T17:09:16.119Z,100344.16
2022-10-11T17:12:04.171Z,100340.22
2022-10-11T17:14:52.091Z,100340.47
2022-10-11T17:17:40.099Z,100345.63
2022-10-11T17:20:28.157Z,100332.16
2022-10-11T17:23:16.046Z,100340.69
2022-10-11T17:26:10.987Z,100336.06
2022-10-11T17:29:00.710Z,100337.00
2022-10-11T17:31:49.518Z,100337.81
2022-10-11T17:34:37.713Z,100337.34
2022-10-11T17:37:28.308Z,100337.34
2022-10-11T17:40:16.191Z,100331.25
2022-10-11T17:43:04.585Z,100330.44
2022-10-11T17:46:09.408Z,100319.59
2022-10-11T17:48:57.408Z,100321.22
2022-10-11T17:51:45.937Z,100323.66
2022-10-11T17:54:33.692Z,100321.22
2022-10-11T17:57:22.063Z,100316.72
2022-10-11T18:00:10.371Z,100314.28
2022-10-11T18:02:58.597Z,100320.41
2022-10-11T18:05:46.444Z,100327.28
2022-10-11T18:08:39.953Z,100319.66
2022-10-11T18:11:29.620Z,100319.44
2022-10-11T18:14:17.202Z,100315.44
2022-10-11T18:17:05.057Z,100318.09
2022-10-11T18:19:53.249Z,100307.19
2022-10-11T18:22:40.805Z,100315.69
2022-10-11T18:25:28.993Z,100305.59
2022-10-11T18:28:19.909Z,100308.44
2022-10-11T18:31:12.938Z,100311.97
2022-10-11T18:34:06.036Z,100312.50
2022-10-11T18:36:53.637Z,100309.72
2022-10-11T18:39:41.451Z,100304.34
2022-10-11T18:42:29.349Z,100303.22
2022-10-11T18:45:17.472Z,100311.19
2022-10-11T18:48:05.489Z,100305.75
2022-10-11T18:51:09.660Z,100296.75
2022-10-11T18:53:58.879Z,100292.34
2022-10-11T18:56:46.996Z,100292.00
2022-10-11T18:59:34.826Z,100296.59
2022-10-11T19:02:23.393Z,100287.66
2022-10-11T19:05:11.238Z,100285.03
2022-10-11T19:07:59.503Z,100288.75
2022-10-11T19:10:47.099Z,100287.75
2022-10-11T19:13:35.768Z,100284.41
2022-10-11T19:16:25.027Z,100280.22
2022-10-11T19:19:13.650Z,100269.13
2022-10-11T19:22:03.311Z,100280.03
2022-10-11T19:24:51.446Z,100274.19
2022-10-11T19:27:39.532Z,100273.59
2022-10-11T19:30:27.241Z,100278.59
2022-10-11T19:33:15.071Z,100281.81
2022-10-11T19:36:05.483Z,100279.38
2022-10-11T19:38:56.844Z,100274.63
2022-10-11T19:41:45.058Z,100273.25
2022-10-11T19:44:37.209Z,100276.94
2022-10-11T19:47:27.485Z,100275.22
2022-10-11T19:50:15.133Z,100279.97
2022-10-11T19:53:03.012Z,100285.47
2022-10-11T19:55:50.979Z,100279.88
2022-10-11T19:58:39.370Z,100275.91
2022-10-11T20:01:29.925Z,100284.09
2022-10-11T20:04:51.052Z,100288.53
2022-10-11T20:07:28.771Z,100278.25
2022-10-11T20:10:16.927Z,100279.72
2022-10-11T20:13:04.547Z,100273.78
2022-10-11T20:15:57.683Z,100274.00
2022-10-11T20:18:45.852Z,100276.13
2022-10-11T20:21:33.792Z,100270.03
2022-10-11T20:24:21.634Z,100271.09
2022-10-11T20:27:09.450Z,100272.66
2022-10-11T20:29:57.399Z,100264.56
2022-10-11T20:32:44.968Z,100265.84
2022-10-11T20:35:32.806Z,100259.22
2022-10-11T20:38:20.877Z,100260.25
2022-10-11T20:41:11.702Z,100265.72
2022-10-11T20:44:02.301Z,100265.84
2022-10-11T20:46:50.160Z,100255.34
2022-10-11T20:49:38.032Z,100261.28
2022-10-11T20:52:26.217Z,100266.81
2022-10-11T20:55:14.358Z,100272.06
2022-10-11T20:58:01.952Z,100264.34
2022-10-11T21:00:49.821Z,100264.56
2022-10-11T21:03:38.055Z,100251.59
2022-10-11T21:06:26.745Z,100246.66
2022-10-11T21:09:16.693Z,100254.84
2022-10-11T21:12:05.347Z,100246.94
2022-10-11T21:14:52.995Z,100249.72
2022-10-11T21:17:40.561Z,100249.97
2022-10-11T21:20:28.618Z,100249.13
2022-10-11T21:23:18.837Z,100246.44
2022-10-11T21:26:09.693Z,100248.09
2022-10-11T21:28:59.444Z,100237.94
2022-10-11T21:31:47.358Z,100242.38
2022-10-11T21:34:35.377Z,100236.59
2022-10-11T21:37:23.238Z,100235.09
2022-10-11T21:40:11.176Z,100246.31
2022-10-11T21:42:59.437Z,100245.59
2022-10-11T21:45:47.302Z,100247.13
2022-10-11T21:48:34.886Z,100243.66
2022-10-11T21:51:29.896Z,100241.53
2022-10-11T21:54:18.699Z,100229.84
2022-10-11T21:57:06.738Z,100229.72
2022-10-11T21:59:54.590Z,100238.13
2022-10-11T22:02:42.367Z,100238.97
2022-10-11T22:05:29.976Z,100234.38
2022-10-11T22:08:17.920Z,100228.03
2022-10-11T22:11:06.572Z,100224.06
2022-10-11T22:13:54.389Z,100228.75
2022-10-11T22:16:41.981Z,100229.78
2022-10-11T22:19:29.867Z,100222.44
2022-10-11T22:22:20.335Z,100235.47
2022-10-11T22:25:08.603Z,100233.38
2022-10-11T22:27:56.757Z,100231.97
2022-10-11T22:30:44.385Z,100227.63
2022-10-11T22:33:34.896Z,100230.44
2022-10-11T22:36:24.813Z,100223.88
2022-10-11T22:39:12.410Z,100225.53
2022-10-11T22:42:00.495Z,100223.88
2022-10-11T22:44:49.382Z,100223.88
2022-10-11T22:47:37.902Z,100217.13
2022-10-11T22:50:25.677Z,100215.97
2022-10-11T22:53:14.571Z,100218.28
2022-10-11T22:56:02.338Z,100219.72
2022-10-11T22:58:49.921Z,100218.56
2022-10-11T23:01:37.992Z,100216.00
2022-10-11T23:04:26.940Z,100221.16
2022-10-11T23:07:14.583Z,100214.16
2022-10-11T23:10:02.675Z,100217.44
2022-10-11T23:12:51.248Z,100215.09
2022-10-11T23:15:42.379Z,100220.25
2022-10-11T23:18:30.330Z,100209.03
2022-10-11T23:21:18.100Z,100216.50
2022-10-11T23:24:06.066Z,100210.66
2022-10-11T23:26:53.838Z,100214.63
2022-10-11T23:29:41.726Z,100206.78
2022-10-11T23:32:29.815Z,100203.03
2022-10-11T23:35:18.005Z,100205.16
2022-10-11T23:38:05.841Z,100194.06
2022-10-11T23:40:53.498Z,100202.25
2022-10-11T23:43:41.574Z,100194.06
2022-10-11T23:46:29.197Z,100204.13
2022-10-11T23:49:17.251Z,100194.97
2022-10-11T23:52:04.956Z,100196.63
2022-10-11T23:54:52.549Z,100195.66
2022-10-11T23:57:40.568Z,100197.78
